Time;durP1;ratioP1;P1;durP2;ratioP2;P2;SDS_P1;SDS_P2;PMS_P1;PMS_P2;Temp;Humidity;BMP_temperature;BMP_pressure;BME280_temperature;BME280_humidity;BME280_pressure;Samples;Min_cycle;Max_cycle;Signal;HPM_P1;HPM_P2
2022/11/03 00:01:57;;;;;;;12.68;2.33;;;10.60;99.90;;;;;;5076256;28;20045;-28
2022/11/03 00:04:23;;;;;;;10.70;2.10;;;10.60;99.90;;;;;;5075668;28;20106;-28
2022/11/03 00:06:51;;;;;;;15.35;1.92;;;10.70;99.90;;;;;;5074393;28;20105;-28
2022/11/03 00:09:18;;;;;;;9.35;1.92;;;10.70;99.90;;;;;;5075278;28;20496;-28
2022/11/03 00:11:46;;;;;;;11.95;2.25;;;10.70;99.90;;;;;;5074557;28;20556;-28
2022/11/03 00:14:13;;;;;;;19.50;2.30;;;10.70;99.90;;;;;;5075427;28;20048;-28
2022/11/03 00:16:39;;;;;;;18.58;3.22;;;10.70;99.90;;;;;;5075453;28;20403;-28
2022/11/03 00:19:06;;;;;;;13.02;2.20;;;10.70;99.90;;;;;;5075952;28;20055;-29
2022/11/03 00:21:32;;;;;;;16.63;2.72;;;10.70;99.90;;;;;;5075356;28;20416;-28
2022/11/03 00:23:58;;;;;;;11.93;2.83;;;10.70;99.90;;;;;;5074102;28;20040;-28
2022/11/03 00:26:26;;;;;;;22.13;2.75;;;10.70;99.90;;;;;;5074088;28;20539;-28
2022/11/03 00:28:54;;;;;;;13.20;2.03;;;10.70;99.90;;;;;;5074223;28;20082;-28
2022/11/03 00:31:23;;;;;;;12.95;2.83;;;10.60;99.90;;;;;;5075106;28;20083;-28
2022/11/03 00:33:50;;;;;;;9.25;2.17;;;10.60;99.90;;;;;;5074455;28;20044;-28
2022/11/03 00:36:21;;;;;;;15.07;2.70;;;10.60;99.90;;;;;;5074076;28;20063;-28
2022/11/03 00:38:47;;;;;;;11.88;2.72;;;10.40;99.90;;;;;;5075577;28;20055;-28
2022/11/03 00:41:13;;;;;;;14.38;2.90;;;10.50;99.90;;;;;;5074335;28;20406;-28
2022/11/03 00:43:39;;;;;;;10.75;2.58;;;10.40;1.00;;;;;;5074828;28;20040;-29
2022/11/03 00:46:07;;;;;;;10.52;1.83;;;10.40;1.00;;;;;;5074797;28;20092;-28
2022/11/03 00:48:34;;;;;;;20.85;3.15;;;10.30;1.00;;;;;;5074770;28;20076;-28
2022/11/03 00:51:18;;;;;;;12.70;2.40;;;10.30;1.00;;;;;;5073346;28;20490;-29
2022/11/03 00:53:51;;;;;;;12.90;2.63;;;10.30;58.30;;;;;;5074646;28;20052;-28
2022/11/03 00:56:21;;;;;;;14.32;2.97;;;10.20;99.90;;;;;;5075183;28;20037;-29
2022/11/03 00:58:47;;;;;;;20.38;2.50;;;10.10;99.90;;;;;;5073527;28;20376;-29
2022/11/03 01:01:23;;;;;;;16.23;2.50;;;10.00;99.90;;;;;;5074173;28;20434;-28
2022/11/03 01:06:49;;;;;;;11.00;2.60;;;9.90;99.90;;;;;;5074601;28;20145;-28
2022/11/03 01:09:38;;;;;;;11.20;2.33;;;10.00;99.90;;;;;;5075206;28;20101;-28
2022/11/03 01:12:10;;;;;;;15.27;2.97;;;9.90;1.00;;;;;;5073973;28;20071;-29
2022/11/03 01:14:38;;;;;;;16.42;2.97;;;9.90;1.00;;;;;;5074296;28;20131;-28
2022/11/03 01:17:06;;;;;;;16.02;2.75;;;9.90;1.00;;;;;;5073202;28;20140;-28
2022/11/03 01:19:32;;;;;;;12.60;2.20;;;10.00;99.90;;;;;;5073795;28;20371;-28
2022/11/03 01:21:58;;;;;;;12.60;2.80;;;10.00;99.90;;;;;;5073729;28;20043;-28
2022/11/03 01:24:23;;;;;;;16.48;2.25;;;9.90;1.00;;;;;;5074084;28;20047;-30
2022/11/03 01:26:49;;;;;;;15.40;2.63;;;9.90;1.00;;;;;;5073903;28;20441;-28
2022/11/03 01:29:15;;;;;;;11.27;2.30;;;9.90;1.00;;;;;;5072819;28;20470;-28
2022/11/03 01:31:41;;;;;;;13.90;2.20;;;9.90;1.00;;;;;;5073245;28;20069;-28
2022/11/03 01:34:16;;;;;;;12.27;2.60;;;9.80;1.00;;;;;;5073974;28;20094;-28
2022/11/03 01:36:43;;;;;;;13.57;3.08;;;9.90;1.00;;;;;;5074253;28;20040;-28
2022/11/03 01:39:13;;;;;;;15.00;2.75;;;9.90;1.00;;;;;;5073905;28;20040;-28
2022/11/03 01:41:40;;;;;;;16.45;2.10;;;9.90;1.00;;;;;;5073835;28;20486;-28
2022/11/03 01:44:06;;;;;;;14.98;2.38;;;10.00;1.00;;;;;;5073837;28;20048;-28
2022/11/03 01:46:38;;;;;;;12.57;2.38;;;10.00;99.90;;;;;;5072927;28;20041;-28
2022/11/03 01:49:06;;;;;;;10.23;1.63;;;10.00;99.90;;;;;;5040634;28;20055;-28
2022/11/03 01:51:35;;;;;;;14.07;2.40;;;9.90;1.00;;;;;;5073363;28;20383;-29
2022/11/03 01:54:06;;;;;;;18.27;3.05;;;9.90;1.00;;;;;;5055205;28;20402;-28
2022/11/03 01:56:37;;;;;;;12.13;2.60;;;9.80;1.00;;;;;;5074327;28;20044;-28
2022/11/03 01:59:03;;;;;;;18.60;2.65;;;9.80;1.00;;;;;;5074521;28;20041;-28
2022/11/03 02:01:30;;;;;;;13.05;2.78;;;9.80;1.00;;;;;;5073621;28;20056;-28
2022/11/03 02:04:09;;;;;;;13.07;2.72;;;9.70;1.00;;;;;;5056701;28;20471;-28
2022/11/03 02:06:36;;;;;;;16.80;2.65;;;9.60;20.60;;;;;;5073446;28;20048;-28
2022/11/03 02:09:05;;;;;;;11.52;2.10;;;9.60;75.70;;;;;;5073539;28;20044;-28
2022/11/03 02:14:17;;;;;;;14.75;3.15;;;9.60;99.90;;;;;;5074159;28;20052;-28
2022/11/03 02:16:49;;;;;;;12.43;2.30;;;9.60;99.90;;;;;;5073480;28;20041;-28
2022/11/03 02:20:10;;;;;;;15.35;2.85;;;9.60;99.90;;;;;;5073538;28;20048;-28
2022/11/03 02:22:57;;;;;;;20.83;2.70;;;9.70;99.90;;;;;;5050835;28;20060;-29
2022/11/03 02:25:45;;;;;;;16.65;2.47;;;9.70;99.90;;;;;;5073751;28;20071;-28
2022/11/03 02:28:14;;;;;;;19.30;2.80;;;9.80;99.90;;;;;;5073108;28;20522;-28
2022/11/03 02:31:00;;;;;;;12.40;2.78;;;9.80;99.90;;;;;;5073698;28;20478;-28
2022/11/03 02:33:38;;;;;;;12.18;2.10;;;9.80;99.90;;;;;;5073381;28;20139;-28
2022/11/03 02:36:15;;;;;;;15.85;2.38;;;9.80;99.90;;;;;;5073357;28;20044;-28
2022/11/03 02:38:56;;;;;;;12.88;2.42;;;9.80;99.90;;;;;;5073325;28;20513;-29
2022/11/03 02:41:23;;;;;;;15.70;2.90;;;9.80;99.90;;;;;;5073275;28;20102;-28
2022/11/03 02:43:51;;;;;;;18.60;3.17;;;9.80;99.90;;;;;;5073237;28;20052;-28
2022/11/03 02:46:18;;;;;;;14.13;2.70;;;9.90;99.90;;;;;;5073147;28;20064;-28
2022/11/03 02:48:44;;;;;;;19.23;2.58;;;9.80;99.90;;;;;;5072026;28;20119;-28
2022/11/03 02:51:10;;;;;;;15.23;2.92;;;9.90;99.90;;;;;;5073673;28;20055;-28
2022/11/03 02:53:42;;;;;;;11.98;2.53;;;9.90;99.90;;;;;;5073116;28;20040;-27
2022/11/03 02:56:15;;;;;;;12.85;3.00;;;10.10;99.90;;;;;;5073187;28;20093;-28
2022/11/03 02:58:47;;;;;;;12.27;2.20;;;10.10;99.90;;;;;;5073673;28;20056;-28
2022/11/03 03:01:47;;;;;;;12.27;2.17;;;10.10;99.90;;;;;;5073089;28;20040;-29
2022/11/03 03:04:30;;;;;;;13.23;2.53;;;10.10;99.90;;;;;;5073774;28;20352;-27
2022/11/03 03:07:09;;;;;;;17.00;3.05;;;10.10;99.90;;;;;;5077480;28;20116;-28
2022/11/03 03:10:13;;;;;;;15.10;2.63;;;10.10;99.90;;;;;;5077306;28;20048;-28
2022/11/03 03:12:45;;;;;;;11.65;2.30;;;10.20;99.90;;;;;;5070141;28;20491;-28
2022/11/03 03:15:12;;;;;;;14.82;2.55;;;10.30;99.90;;;;;;5077394;28;20037;-28
2022/11/03 03:17:54;;;;;;;14.35;1.92;;;10.30;99.90;;;;;;5076518;28;20044;-28
2022/11/03 03:20:30;;;;;;;17.00;3.40;;;10.30;99.90;;;;;;5075382;28;20044;-30
2022/11/03 03:22:59;;;;;;;11.95;2.30;;;10.30;99.90;;;;;;5077000;28;20040;-28
2022/11/03 03:26:08;;;;;;;12.27;2.47;;;10.30;99.90;;;;;;5075407;28;20040;-28
2022/11/03 03:28:42;;;;;;;11.63;2.38;;;10.30;99.90;;;;;;5043105;28;20063;-28
2022/11/03 03:31:12;;;;;;;11.52;2.35;;;10.20;99.90;;;;;;5077127;28;20078;-27
2022/11/03 03:33:39;;;;;;;14.65;2.60;;;10.30;99.90;;;;;;5058872;28;20087;-29
2022/11/03 03:36:11;;;;;;;13.98;2.95;;;10.20;99.90;;;;;;5076247;28;20051;-28
2022/11/03 03:38:43;;;;;;;11.65;2.30;;;10.30;99.90;;;;;;5077005;28;20048;-28
2022/11/03 03:41:20;;;;;;;13.52;2.65;;;10.30;99.90;;;;;;5076129;28;20053;-28
2022/11/03 03:43:51;;;;;;;13.13;2.83;;;10.30;99.90;;;;;;5076949;28;20044;-28
2022/11/03 03:46:19;;;;;;;20.38;4.20;;;10.30;99.90;;;;;;5076206;28;20421;-29
2022/11/03 03:48:45;;;;;;;14.32;2.00;;;10.30;99.90;;;;;;5074967;28;20052;-28
2022/11/03 03:51:13;;;;;;;12.82;2.45;;;10.20;99.90;;;;;;5076207;28;20056;-27
2022/11/03 03:53:38;;;;;;;16.48;3.00;;;10.30;99.90;;;;;;5075589;28;20437;-29
2022/11/03 03:56:04;;;;;;;12.70;2.08;;;10.30;99.90;;;;;;5075882;28;20053;-27
2022/11/03 03:58:30;;;;;;;13.35;2.80;;;10.30;99.90;;;;;;5076580;28;20055;-30
2022/11/03 04:00:56;;;;;;;14.07;2.22;;;10.30;99.90;;;;;;5075879;28;20088;-28
2022/11/03 04:03:24;;;;;;;15.05;2.40;;;10.30;99.90;;;;;;5075707;28;20502;-30
2022/11/03 04:05:50;;;;;;;17.45;2.53;;;10.20;99.90;;;;;;5076335;28;20049;-28
2022/11/03 04:08:16;;;;;;;10.52;2.00;;;10.20;99.90;;;;;;5075600;28;20045;-28
2022/11/03 04:24:24;;;;;;;18.42;3.03;;;10.00;99.90;;;;;;5075012;28;20403;-28
2022/11/03 04:26:51;;;;;;;17.73;3.75;;;10.00;99.90;;;;;;5075177;28;20101;-29
2022/11/03 04:29:16;;;;;;;13.05;2.40;;;10.00;99.90;;;;;;5074281;28;20079;-29
2022/11/03 04:31:42;;;;;;;9.25;2.72;;;10.00;99.90;;;;;;5075675;28;20544;-28
2022/11/03 04:34:11;;;;;;;9.85;1.65;;;10.00;99.90;;;;;;5075915;28;20045;-28
2022/11/03 04:36:37;;;;;;;16.73;2.78;;;10.00;99.90;;;;;;5074991;28;20080;-28
2022/11/03 04:39:16;;;;;;;12.80;2.13;;;10.00;99.90;;;;;;5074952;28;20083;-29
2022/11/03 04:41:42;;;;;;;13.18;2.13;;;10.00;99.90;;;;;;5073988;28;20440;-28
2022/11/03 04:44:14;;;;;;;10.10;1.92;;;9.90;99.90;;;;;;5075667;28;20036;-28
2022/11/03 04:46:40;;;;;;;15.68;2.42;;;9.90;99.90;;;;;;5075107;28;20391;-28
2022/11/03 04:49:13;;;;;;;12.15;2.47;;;10.00;99.90;;;;;;5074507;28;20055;-28
2022/11/03 04:51:40;;;;;;;16.00;2.50;;;10.10;99.90;;;;;;5074328;28;20521;-28
2022/11/03 04:54:28;;;;;;;12.43;2.63;;;10.10;99.90;;;;;;5074077;28;20048;-29
2022/11/03 04:56:55;;;;;;;14.00;3.00;;;10.10;99.90;;;;;;5075343;28;20036;-28
2022/11/03 04:59:20;;;;;;;13.60;2.63;;;10.10;99.90;;;;;;5074656;28;20045;-28
2022/11/03 05:01:46;;;;;;;14.10;2.65;;;10.10;99.90;;;;;;5074567;28;20098;-28
2022/11/03 05:04:15;;;;;;;16.73;2.28;;;10.00;99.90;;;;;;5074175;28;20045;-28
2022/11/03 05:06:48;;;;;;;15.70;2.78;;;10.00;99.90;;;;;;5074318;28;20044;-28
2022/11/03 05:09:24;;;;;;;11.75;2.13;;;9.90;99.90;;;;;;5074510;28;20086;-28
2022/11/03 05:11:50;;;;;;;12.10;2.47;;;9.80;99.90;;;;;;5074691;28;20053;-28
2022/11/03 05:14:20;;;;;;;16.17;2.60;;;9.70;99.90;;;;;;5074892;28;20379;-28
2022/11/03 05:16:47;;;;;;;13.48;2.40;;;9.60;99.90;;;;;;5074287;28;20093;-28
2022/11/03 05:19:26;;;;;;;14.65;2.67;;;9.60;99.90;;;;;;5074245;28;20060;-28
2022/11/03 05:21:52;;;;;;;12.02;2.10;;;9.60;99.90;;;;;;5072985;28;20064;-28
2022/11/03 05:24:21;;;;;;;14.18;2.20;;;9.50;99.90;;;;;;5074163;28;20079;-28
2022/11/03 05:26:48;;;;;;;15.48;2.80;;;9.50;99.90;;;;;;5073875;28;20044;-28
2022/11/03 05:29:23;;;;;;;14.98;2.15;;;9.50;99.90;;;;;;5073076;28;20546;-28
2022/11/03 05:31:52;;;;;;;20.83;2.40;;;9.50;99.90;;;;;;5074016;28;20090;-28
2022/11/03 05:34:33;;;;;;;14.98;2.65;;;9.50;99.90;;;;;;5074079;28;20087;-28
2022/11/03 05:37:21;;;;;;;11.48;2.05;;;9.50;99.90;;;;;;5074319;28;20115;-28
2022/11/03 05:39:49;;;;;;;13.15;2.10;;;9.50;99.90;;;;;;5074467;28;20081;-28
2022/11/03 05:42:35;;;;;;;14.30;2.88;;;9.50;99.90;;;;;;5072616;28;20048;-29
2022/11/03 05:45:06;;;;;;;10.05;2.13;;;9.50;99.90;;;;;;5073471;28;20490;-28
2022/11/03 05:47:37;;;;;;;10.50;2.15;;;9.50;99.90;;;;;;5073719;28;20091;-28
2022/11/03 05:50:21;;;;;;;12.32;2.28;;;9.40;99.90;;;;;;5074289;28;20048;-28
2022/11/03 05:52:49;;;;;;;15.98;2.20;;;9.50;99.90;;;;;;5074154;28;20071;-28
2022/11/03 05:55:33;;;;;;;16.63;2.80;;;9.40;99.90;;;;;;5073646;28;20044;-28
2022/11/03 05:58:11;;;;;;;16.33;2.70;;;9.40;99.90;;;;;;5073707;28;20055;-30
2022/11/03 06:00:40;;;;;;;15.07;2.60;;;9.40;99.90;;;;;;5073752;28;20053;-28
2022/11/03 06:03:06;;;;;;;12.73;3.20;;;9.40;99.90;;;;;;5074069;28;20402;-28
2022/11/03 06:05:35;;;;;;;15.38;2.88;;;9.40;99.90;;;;;;5073931;28;20052;-28
2022/11/03 06:08:11;;;;;;;14.38;3.15;;;9.40;99.90;;;;;;5073419;28;20044;-28
2022/11/03 06:10:44;;;;;;;11.85;2.45;;;9.40;99.90;;;;;;5074481;28;20041;-28
2022/11/03 06:13:24;;;;;;;12.57;2.83;;;9.40;99.90;;;;;;5074151;28;20106;-28
2022/11/03 06:15:56;;;;;;;15.05;3.17;;;9.40;99.90;;;;;;5073829;28;20418;-28
2022/11/03 06:18:28;;;;;;;13.25;2.05;;;9.40;99.90;;;;;;5072556;28;20433;-28
2022/11/03 06:20:58;;;;;;;14.18;2.88;;;9.40;99.90;;;;;;5073545;28;20078;-28
2022/11/03 06:23:24;;;;;;;12.57;2.55;;;9.40;99.90;;;;;;5073739;28;20074;-28
2022/11/03 06:25:53;;;;;;;11.38;1.98;;;9.50;99.90;;;;;;5072145;28;20041;-28
2022/11/03 06:28:28;;;;;;;13.02;2.30;;;9.50;99.90;;;;;;5074160;28;20131;-28
2022/11/03 06:30:54;;;;;;;14.23;3.05;;;9.60;99.90;;;;;;5073926;28;20434;-28
2022/11/03 06:33:29;;;;;;;14.55;2.25;;;9.70;99.90;;;;;;5074040;28;20455;-28
2022/11/03 06:36:00;;;;;;;10.40;2.50;;;9.70;99.90;;;;;;5073408;28;20123;-29
2022/11/03 06:38:29;;;;;;;10.88;2.20;;;9.70;99.90;;;;;;5074055;28;20047;-28
2022/11/03 06:40:55;;;;;;;13.20;2.20;;;9.70;99.90;;;;;;5077527;28;20047;-28
2022/11/03 06:43:40;;;;;;;12.60;2.08;;;9.70;99.90;;;;;;5077280;28;20079;-28
2022/11/03 06:46:22;;;;;;;16.05;2.13;;;9.80;99.90;;;;;;5077646;28;20044;-28
2022/11/03 06:48:48;;;;;;;17.30;2.10;;;9.80;99.90;;;;;;5077406;28;20084;-28
2022/11/03 06:51:24;;;;;;;10.35;2.03;;;9.80;99.90;;;;;;5076885;28;20052;-28
2022/11/03 06:53:52;;;;;;;12.45;2.40;;;9.80;99.90;;;;;;5077043;28;20048;-28
2022/11/03 06:56:21;;;;;;;12.95;2.28;;;9.80;99.90;;;;;;5076648;28;20483;-28
2022/11/03 06:58:48;;;;;;;10.60;2.22;;;9.90;99.90;;;;;;5076827;28;20546;-29
2022/11/03 07:01:20;;;;;;;12.00;3.20;;;9.90;99.90;;;;;;5076750;28;20486;-29
2022/11/03 07:03:48;;;;;;;10.43;2.10;;;10.00;99.90;;;;;;5076789;28;20048;-29
2022/11/03 07:06:20;;;;;;;9.02;1.67;;;10.00;99.90;;;;;;5076539;28;20045;-28
2022/11/03 07:08:51;;;;;;;9.27;2.25;;;10.00;99.90;;;;;;5077031;28;20110;-28
2022/11/03 07:11:26;;;;;;;10.32;2.17;;;10.00;99.90;;;;;;5076693;28;20052;-28
2022/11/03 07:13:56;;;;;;;16.23;2.30;;;10.00;99.90;;;;;;5076581;28;20398;-28
2022/11/03 07:16:27;;;;;;;11.40;2.63;;;10.00;99.90;;;;;;5076625;28;20067;-28
2022/11/03 07:18:53;;;;;;;14.73;2.67;;;10.00;99.90;;;;;;5076629;28;20044;-29
2022/11/03 07:21:29;;;;;;;10.45;2.45;;;10.10;99.90;;;;;;5075614;28;20059;-29
2022/11/03 07:23:58;;;;;;;15.27;2.53;;;10.10;99.90;;;;;;5077045;28;20428;-28
2022/11/03 07:26:26;;;;;;;9.65;2.08;;;10.10;99.90;;;;;;5075645;28;20051;-28
2022/11/03 07:28:52;;;;;;;12.25;2.00;;;10.20;99.90;;;;;;5076125;28;20414;-28
2022/11/03 07:31:22;;;;;;;12.40;2.55;;;10.20;99.90;;;;;;5075209;28;20086;-28
2022/11/03 07:33:48;;;;;;;11.10;2.42;;;10.30;99.90;;;;;;5077347;28;20055;-28
2022/11/03 07:36:20;;;;;;;13.15;2.15;;;10.40;99.90;;;;;;5058607;28;20045;-28
2022/11/03 07:38:49;;;;;;;13.52;2.45;;;10.40;99.90;;;;;;5076222;28;20044;-28
2022/11/03 07:41:23;;;;;;;12.00;2.08;;;10.40;99.90;;;;;;5076779;28;20082;-28
2022/11/03 07:43:58;;;;;;;10.30;2.00;;;10.50;99.90;;;;;;5077032;28;20450;-29
2022/11/03 07:46:25;;;;;;;13.82;2.63;;;10.50;99.90;;;;;;5074732;28;20099;-28
2022/11/03 07:48:54;;;;;;;12.70;2.25;;;10.60;99.90;;;;;;5076874;28;20091;-28
2022/11/03 07:51:36;;;;;;;9.73;1.98;;;10.60;99.90;;;;;;5073656;28;20049;-29
2022/11/03 07:54:08;;;;;;;13.38;3.20;;;10.60;99.90;;;;;;5076189;28;20135;-28
2022/11/03 07:56:50;;;;;;;9.82;2.03;;;10.70;99.90;;;;;;5075946;28;20490;-28
2022/11/03 07:59:21;;;;;;;13.40;2.88;;;10.80;99.90;;;;;;5076785;28;20090;-28
2022/11/03 08:01:50;;;;;;;12.52;2.80;;;10.80;99.90;;;;;;5058080;28;20078;-28
2022/11/03 08:04:27;;;;;;;13.23;3.35;;;10.80;99.90;;;;;;5075853;28;20052;-30
2022/11/03 08:06:52;;;;;;;9.10;2.45;;;10.90;99.90;;;;;;5075624;28;20087;-28
2022/11/03 08:09:20;;;;;;;11.20;2.55;;;11.00;99.90;;;;;;5074750;28;20072;-29
2022/11/03 08:11:46;;;;;;;11.15;2.10;;;11.00;99.90;;;;;;5074729;28;20131;-28
2022/11/03 08:14:12;;;;;;;10.93;2.22;;;11.10;99.90;;;;;;5075584;28;20091;-30
2022/11/03 08:16:38;;;;;;;14.48;2.90;;;11.10;99.90;;;;;;5075565;28;20076;-28
2022/11/03 08:19:03;;;;;;;11.80;2.10;;;11.20;99.90;;;;;;5058219;28;20055;-29
2022/11/03 08:21:29;;;;;;;12.55;2.50;;;11.20;99.90;;;;;;5076213;28;20091;-28
2022/11/03 08:23:55;;;;;;;16.88;2.83;;;11.30;99.90;;;;;;5075062;28;20050;-29
2022/11/03 08:26:21;;;;;;;7.30;2.45;;;11.30;99.90;;;;;;5075264;28;20040;-28
2022/11/03 08:28:46;;;;;;;11.30;2.15;;;11.40;99.90;;;;;;5074069;28;20051;-28
2022/11/03 08:31:12;;;;;;;14.15;2.40;;;11.50;99.90;;;;;;5075238;28;20040;-28
2022/11/03 08:33:38;;;;;;;10.85;2.30;;;11.60;99.90;;;;;;5075187;28;20139;-28
2022/11/03 08:36:04;;;;;;;13.02;3.03;;;11.70;99.90;;;;;;5074848;28;20082;-28
2022/11/03 08:38:30;;;;;;;13.32;2.30;;;11.80;99.90;;;;;;5075882;28;20052;-28
2022/11/03 08:40:57;;;;;;;11.70;2.70;;;12.00;99.90;;;;;;5075062;28;20495;-29
2022/11/03 08:43:23;;;;;;;12.20;2.70;;;12.10;99.90;;;;;;5075006;28;20047;-29
2022/11/03 08:45:52;;;;;;;11.38;2.53;;;12.20;99.90;;;;;;5074221;28;20048;-29
2022/11/03 08:48:28;;;;;;;9.00;2.08;;;12.30;99.90;;;;;;5073508;28;20399;-28
2022/11/03 08:50:55;;;;;;;8.38;1.73;;;12.30;99.90;;;;;;5074926;28;20540;-30
2022/11/03 08:53:24;;;;;;;10.50;2.75;;;12.40;99.90;;;;;;5074873;28;20114;-28
2022/11/03 08:55:51;;;;;;;10.45;2.70;;;12.40;99.90;;;;;;5074707;28;20048;-28
2022/11/03 08:58:17;;;;;;;15.02;2.60;;;12.50;99.90;;;;;;5074669;28;20036;-28
2022/11/03 09:00:42;;;;;;;10.32;2.17;;;12.50;99.90;;;;;;5074689;28;20044;-28
2022/11/03 09:03:08;;;;;;;12.52;2.97;;;12.60;99.90;;;;;;5074232;28;20123;-28
2022/11/03 09:05:34;;;;;;;11.35;2.40;;;12.60;99.90;;;;;;5073336;28;20162;-28
2022/11/03 09:08:00;;;;;;;13.77;2.63;;;12.60;99.90;;;;;;5074396;28;20077;-29
2022/11/03 09:10:25;;;;;;;13.80;2.58;;;12.70;99.90;;;;;;5074486;28;20051;-28
2022/11/03 09:12:52;;;;;;;7.55;2.15;;;12.70;99.90;;;;;;5074971;28;20045;-28
2022/11/03 09:15:17;;;;;;;10.02;1.70;;;12.70;99.90;;;;;;5075226;28;20051;-28
2022/11/03 09:17:43;;;;;;;9.75;2.22;;;12.60;99.90;;;;;;5073964;28;20386;-28
2022/11/03 09:20:10;;;;;;;9.20;2.22;;;12.60;99.90;;;;;;5072990;28;20049;-29
2022/11/03 09:22:35;;;;;;;13.18;2.53;;;12.60;99.90;;;;;;5074282;28;20119;-28
2022/11/03 09:25:01;;;;;;;12.48;2.10;;;12.60;99.90;;;;;;5074728;28;20496;-28
2022/11/03 09:27:27;;;;;;;13.98;2.60;;;12.70;99.90;;;;;;5073176;28;20544;-28
2022/11/03 09:29:53;;;;;;;7.95;2.05;;;12.70;99.90;;;;;;5074104;28;20052;-29
2022/11/03 09:32:19;;;;;;;12.05;2.58;;;12.80;99.90;;;;;;5072941;28;20131;-29
2022/11/03 09:34:44;;;;;;;9.07;2.25;;;12.90;99.90;;;;;;5073488;28;20492;-28
2022/11/03 09:37:10;;;;;;;12.82;2.50;;;12.90;99.90;;;;;;5074005;28;20044;-28
2022/11/03 09:39:36;;;;;;;11.32;3.13;;;13.00;99.90;;;;;;5074492;28;20548;-28
2022/11/03 09:42:03;;;;;;;14.05;2.70;;;13.00;99.90;;;;;;5039674;28;20051;-29
2022/11/03 09:44:32;;;;;;;11.15;2.25;;;13.00;99.90;;;;;;5074136;28;20083;-29
2022/11/03 09:46:59;;;;;;;16.00;2.85;;;13.10;68.10;;;;;;5074542;28;20048;-29
2022/11/03 09:49:26;;;;;;;10.48;2.00;;;13.10;99.90;;;;;;5074394;28;20051;-30
2022/11/03 09:51:52;;;;;;;11.70;2.88;;;13.10;16.90;;;;;;5072413;28;20516;-29
2022/11/03 09:54:19;;;;;;;7.65;1.98;;;13.20;99.90;;;;;;5073802;28;20132;-28
2022/11/03 09:56:46;;;;;;;10.65;2.30;;;13.30;67.00;;;;;;5073762;28;20045;-29
2022/11/03 09:59:22;;;;;;;11.23;3.00;;;13.40;61.90;;;;;;5073746;28;20052;-28
2022/11/03 10:01:52;;;;;;;9.82;2.08;;;13.50;99.90;;;;;;5073735;28;20049;-29
2022/11/03 10:04:27;;;;;;;10.70;2.30;;;13.60;99.90;;;;;;5074251;28;20391;-28
2022/11/03 10:06:57;;;;;;;11.18;2.25;;;13.70;99.90;;;;;;5073849;28;20493;-28
2022/11/03 10:09:25;;;;;;;9.70;2.08;;;13.90;1.00;;;;;;5073667;28;20414;-28
2022/11/03 10:11:54;;;;;;;10.20;2.30;;;14.00;1.00;;;;;;5074347;28;20123;-28
2022/11/03 10:14:21;;;;;;;15.88;2.28;;;14.10;99.90;;;;;;5072863;28;20054;-28
2022/11/03 10:16:55;;;;;;;14.18;2.95;;;14.10;99.90;;;;;;5073403;28;20044;-30
2022/11/03 10:19:23;;;;;;;15.27;2.60;;;14.10;99.90;;;;;;5074237;28;20052;-28
2022/11/03 10:21:50;;;;;;;10.50;2.50;;;14.10;99.90;;;;;;5073383;28;20036;-29
2022/11/03 10:24:16;;;;;;;15.20;2.53;;;14.10;83.30;;;;;;5072140;28;20429;-29
2022/11/03 10:26:51;;;;;;;14.15;2.17;;;14.00;99.90;;;;;;5073787;28;20378;-29
2022/11/03 10:29:22;;;;;;;13.88;2.53;;;14.00;99.90;;;;;;5073350;28;20098;-29
2022/11/03 10:31:50;;;;;;;11.02;2.13;;;14.00;99.90;;;;;;5074161;28;20044;-29
2022/11/03 10:34:40;;;;;;;10.63;2.15;;;14.10;99.90;;;;;;5073280;28;20501;-29
2022/11/03 10:37:16;;;;;;;8.60;2.58;;;14.10;99.90;;;;;;5074407;28;20070;-28
2022/11/03 10:39:46;;;;;;;9.27;2.08;;;14.00;99.90;;;;;;5073271;28;20045;-28
2022/11/03 10:42:17;;;;;;;10.13;2.20;;;14.10;99.90;;;;;;5073222;28;20084;-29
2022/11/03 10:44:42;;;;;;;10.43;2.55;;;14.10;99.90;;;;;;5073203;28;20129;-28
2022/11/03 10:47:40;;;;;;;13.88;2.28;;;14.10;99.80;;;;;;5072466;28;20163;-28
2022/11/03 10:50:26;;;;;;;9.57;3.08;;;14.20;53.00;;;;;;5071850;28;20049;-28
2022/11/03 10:52:53;;;;;;;10.02;2.47;;;14.30;19.90;;;;;;5071519;28;20131;-28
2022/11/03 10:55:20;;;;;;;12.98;2.10;;;14.30;99.90;;;;;;5073092;28;20045;-29
2022/11/03 10:57:48;;;;;;;9.20;1.83;;;14.30;99.90;;;;;;5072790;28;20548;-29
2022/11/03 11:00:15;;;;;;;10.07;2.25;;;14.50;99.90;;;;;;5073039;28;20048;-29
2022/11/03 11:02:43;;;;;;;8.65;1.88;;;14.60;1.00;;;;;;5073005;28;20048;-28
2022/11/03 11:05:21;;;;;;;12.40;2.35;;;14.80;99.90;;;;;;5073072;28;20095;-29
2022/11/03 11:07:50;;;;;;;11.25;2.58;;;14.80;99.90;;;;;;5072580;28;20071;-28
2022/11/03 11:10:17;;;;;;;10.88;1.95;;;14.80;99.90;;;;;;5072906;28;20131;-28
2022/11/03 11:13:21;;;;;;;7.45;2.20;;;14.90;99.90;;;;;;5072971;28;20052;-28
2022/11/03 11:15:49;;;;;;;17.52;4.20;;;14.90;99.90;;;;;;5031323;28;20050;-29
2022/11/03 11:18:38;;;;;;;11.73;2.58;;;15.00;1.00;;;;;;5014492;28;20053;-28
2022/11/03 11:21:18;;;;;;;10.18;2.00;;;15.00;1.00;;;;;;5049059;28;20092;-28
2022/11/03 11:23:45;;;;;;;11.93;2.50;;;14.90;85.50;;;;;;5073783;28;20360;-28
2022/11/03 11:26:23;;;;;;;7.65;1.70;;;15.00;1.00;;;;;;5074123;28;20048;-28
2022/11/03 11:29:07;;;;;;;11.55;2.30;;;15.10;1.00;;;;;;5076450;28;20109;-29
2022/11/03 11:31:37;;;;;;;10.68;2.97;;;15.30;99.90;;;;;;5075985;28;20048;-28
2022/11/03 11:34:15;;;;;;;11.45;1.77;;;15.40;99.90;;;;;;5076309;28;20490;-29
2022/11/03 11:36:44;;;;;;;9.25;2.10;;;15.50;1.00;;;;;;5076988;28;20044;-29
2022/11/03 11:39:12;;;;;;;7.65;1.75;;;15.60;1.00;;;;;;5075306;28;20075;-28
2022/11/03 11:42:10;;;;;;;11.13;2.10;;;15.70;99.90;;;;;;5076234;28;20051;-28
2022/11/03 11:44:42;;;;;;;13.82;2.65;;;15.80;99.90;;;;;;5074984;28;20048;-28
2022/11/03 11:47:45;;;;;;;10.55;2.30;;;15.90;99.90;;;;;;5076847;28;20437;-28
2022/11/03 11:50:13;;;;;;;9.25;1.33;;;15.80;1.00;;;;;;5075114;28;20048;-29
2022/11/03 11:52:41;;;;;;;12.95;2.28;;;15.60;99.90;;;;;;5076055;28;20500;-29
2022/11/03 11:55:21;;;;;;;8.57;1.92;;;15.40;1.00;;;;;;5076554;28;20450;-28
2022/11/03 11:57:47;;;;;;;7.22;3.20;;;15.40;1.00;;;;;;5075845;28;20091;-28
2022/11/03 12:00:23;;;;;;;9.52;1.60;;;15.30;99.90;;;;;;5075888;28;20118;-29
2022/11/03 12:02:51;;;;;;;5.63;1.60;;;15.20;1.00;;;;;;5076676;28;20048;-29
2022/11/03 12:05:21;;;;;;;8.95;1.75;;;15.30;99.90;;;;;;5074822;28;20049;-28
2022/11/03 12:07:47;;;;;;;9.40;2.08;;;15.30;99.90;;;;;;5075598;28;20470;-28
2022/11/03 12:10:22;;;;;;;7.00;1.63;;;15.30;99.90;;;;;;5074204;28;20499;-28
2022/11/03 12:12:48;;;;;;;8.20;1.67;;;15.30;1.00;;;;;;5075223;28;20040;-29
2022/11/03 12:15:51;;;;;;;8.05;1.83;;;15.40;99.90;;;;;;5075895;28;20110;-28
2022/11/03 12:18:31;;;;;;;10.32;2.13;;;15.40;99.90;;;;;;5074611;28;20059;-29
2022/11/03 12:20:57;;;;;;;10.77;2.10;;;15.40;99.90;;;;;;5057847;28;20071;-29
2022/11/03 12:23:52;;;;;;;9.18;2.28;;;15.40;1.00;;;;;;5057789;28;20041;-29
2022/11/03 12:26:40;;;;;;;11.25;2.08;;;15.30;99.90;;;;;;5066458;28;20604;-28
2022/11/03 12:29:06;;;;;;;8.95;2.35;;;15.30;98.60;;;;;;5075385;28;20040;-28
2022/11/03 12:31:32;;;;;;;9.20;2.13;;;15.20;99.90;;;;;;5075781;28;20047;-29
2022/11/03 12:33:58;;;;;;;12.55;1.92;;;15.20;99.90;;;;;;5074238;28;20048;-29
2022/11/03 12:36:24;;;;;;;7.72;1.65;;;15.20;99.90;;;;;;5073748;28;20090;-28
2022/11/03 12:38:49;;;;;;;7.00;1.60;;;15.10;99.90;;;;;;5075081;28;20372;-28
2022/11/03 12:41:21;;;;;;;6.57;1.83;;;15.10;1.00;;;;;;5074116;28;20509;-29
2022/11/03 12:43:51;;;;;;;5.30;1.50;;;15.10;1.00;;;;;;5075047;28;20041;-28
2022/11/03 12:46:18;;;;;;;8.20;1.70;;;15.00;1.00;;;;;;5075224;28;20044;-30
2022/11/03 12:48:46;;;;;;;9.80;1.90;;;15.10;1.00;;;;;;5073998;28;20040;-29
2022/11/03 12:51:29;;;;;;;9.65;1.92;;;15.10;1.00;;;;;;5073601;28;20048;-28
2022/11/03 12:53:55;;;;;;;13.57;1.95;;;15.10;99.90;;;;;;5058114;28;20056;-30
2022/11/03 12:56:21;;;;;;;7.57;2.00;;;15.20;1.00;;;;;;5073605;28;20045;-28
2022/11/03 12:58:46;;;;;;;10.77;1.95;;;15.20;99.90;;;;;;5075008;28;20048;-29
2022/11/03 13:01:12;;;;;;;9.70;2.10;;;15.30;99.90;;;;;;5074708;28;20478;-29
2022/11/03 13:03:39;;;;;;;6.55;1.60;;;15.30;1.00;;;;;;5075246;28;20056;-29
2022/11/03 13:06:08;;;;;;;6.40;1.63;;;15.30;29.30;;;;;;5073248;28;20509;-28
2022/11/03 13:08:34;;;;;;;9.93;1.85;;;15.30;1.00;;;;;;5073832;28;20044;-28
2022/11/03 13:11:00;;;;;;;7.97;1.60;;;15.30;1.00;;;;;;5074483;28;20052;-28
2022/11/03 13:13:26;;;;;;;6.03;1.77;;;15.30;1.00;;;;;;5074448;28;20051;-28
2022/11/03 13:15:52;;;;;;;9.93;2.45;;;15.20;1.00;;;;;;5074417;28;20108;-28
2022/11/03 13:18:19;;;;;;;6.97;1.67;;;15.20;1.00;;;;;;5073184;28;20037;-29
2022/11/03 13:20:45;;;;;;;7.65;2.13;;;15.10;1.00;;;;;;5073352;28;20056;-29
2022/11/03 13:23:11;;;;;;;10.60;2.13;;;15.10;1.00;;;;;;5074309;28;20037;-29